Time;durP1;ratioP1;P1;durP2;ratioP2;P2;SDS_P1;SDS_P2;PMS_P1;PMS_P2;Temp;Humidity;BMP_temperature;BMP_pressure;BME280_temperature;BME280_humidity;BME280_pressure;Samples;Min_cycle;Max_cycle;Signal;HPM_P1;HPM_P2
2021/10/11 00:01:13;;;;;;;15.18;6.35;;;;;;;10.23;99.92;101557.59;5052743;28;20045;-62
2021/10/11 00:03:38;;;;;;;16.00;6.20;;;;;;;10.29;100.00;101557.06;5049637;28;20029;-63
2021/10/11 00:06:04;;;;;;;15.00;7.05;;;;;;;10.31;99.95;101546.75;5053230;28;20044;-63
2021/10/11 00:08:29;;;;;;;13.50;6.07;;;;;;;10.33;100.00;101549.91;5052311;28;20041;-63
2021/10/11 00:10:55;;;;;;;17.23;6.93;;;;;;;10.33;100.00;101549.09;5052791;28;20109;-62
2021/10/11 00:13:21;;;;;;;17.25;7.40;;;;;;;10.34;99.73;101551.47;5048602;28;20045;-64
2021/10/11 00:15:47;;;;;;;16.88;7.25;;;;;;;10.40;99.90;101549.34;5051746;28;20459;-64
2021/10/11 00:18:13;;;;;;;17.73;7.72;;;;;;;10.42;99.52;101558.69;5050649;28;20045;-62
2021/10/11 00:20:39;;;;;;;16.63;6.55;;;;;;;10.41;99.91;101551.72;5046966;28;20059;-63
2021/10/11 00:23:04;;;;;;;14.02;6.82;;;;;;;10.52;99.20;101560.16;5053371;28;20044;-64
2021/10/11 00:25:30;;;;;;;17.67;6.93;;;;;;;10.53;98.96;101564.44;5049026;28;20047;-63
2021/10/11 00:27:55;;;;;;;17.25;6.88;;;;;;;10.56;98.48;101558.38;5051871;28;20025;-63
2021/10/11 00:30:20;;;;;;;16.02;6.43;;;;;;;10.56;98.15;101567.25;5053163;28;20029;-63
2021/10/11 00:32:47;;;;;;;18.13;7.25;;;;;;;10.55;98.61;101562.22;5044538;28;20040;-66
2021/10/11 00:35:13;;;;;;;18.52;7.10;;;;;;;10.54;98.79;101566.81;5045626;28;20125;-63
2021/10/11 00:37:38;;;;;;;16.88;7.43;;;;;;;10.53;98.43;101562.53;5051040;28;20045;-63
2021/10/11 00:40:05;;;;;;;24.60;7.90;;;;;;;10.46;98.50;101569.56;5052077;28;20032;-63
2021/10/11 00:42:31;;;;;;;19.60;7.00;;;;;;;10.44;98.66;101556.44;5049207;28;20025;-64
2021/10/11 00:44:56;;;;;;;18.90;8.10;;;;;;;10.47;98.62;101561.16;5051974;28;20497;-63
2021/10/11 00:47:22;;;;;;;20.15;7.30;;;;;;;10.51;98.69;101564.00;5052707;28;20116;-63
2021/10/11 00:49:47;;;;;;;17.38;7.10;;;;;;;10.47;98.98;101555.00;5038660;28;20770;-63
2021/10/11 00:52:13;;;;;;;15.50;6.85;;;;;;;10.49;98.84;101548.16;5044215;28;20393;-64
2021/10/11 00:54:39;;;;;;;16.40;6.82;;;;;;;10.51;98.72;101550.53;5047248;28;20041;-63
2021/10/11 00:57:05;;;;;;;15.38;6.22;;;;;;;10.50;99.19;101544.34;5049067;28;20033;-62
2021/10/11 00:59:30;;;;;;;17.73;6.95;;;;;;;10.54;99.03;101539.88;5051132;28;20039;-63
2021/10/11 01:01:56;;;;;;;16.75;7.35;;;;;;;10.57;98.82;101546.47;5048887;28;20550;-63
2021/10/11 01:04:21;;;;;;;16.42;7.63;;;;;;;10.65;98.47;101542.91;5051316;28;20032;-64
2021/10/11 01:06:47;;;;;;;17.77;7.78;;;;;;;10.61;98.63;101547.41;5042605;28;20072;-62
2021/10/11 01:09:13;;;;;;;16.77;7.00;;;;;;;10.68;98.73;101536.88;5051614;28;20033;-64
2021/10/11 01:11:39;;;;;;;18.52;7.25;;;;;;;10.74;98.06;101532.88;5052006;28;20064;-63
2021/10/11 01:14:05;;;;;;;17.23;6.60;;;;;;;10.74;97.87;101538.25;5046359;28;20059;-63
2021/10/11 01:16:32;;;;;;;20.33;7.63;;;;;;;10.65;98.77;101538.31;5046717;28;20021;-66
2021/10/11 01:18:57;;;;;;;15.75;7.07;;;;;;;10.61;99.30;101537.41;5049044;28;20048;-63
2021/10/11 01:21:24;;;;;;;20.45;7.22;;;;;;;10.57;100.00;101530.31;5047964;28;20033;-63
2021/10/11 01:23:51;;;;;;;17.58;7.53;;;;;;;10.61;99.90;101542.81;5046118;28;20040;-64
2021/10/11 01:26:17;;;;;;;25.58;8.25;;;;;;;10.62;100.00;101538.22;5048603;28;20482;-64
2021/10/11 01:28:42;;;;;;;18.98;7.70;;;;;;;10.61;100.00;101533.94;5045886;28;20083;-63
2021/10/11 01:31:08;;;;;;;23.95;8.35;;;;;;;10.62;100.00;101533.63;5047239;28;20041;-63
2021/10/11 01:33:34;;;;;;;19.27;8.40;;;;;;;10.64;100.00;101531.38;5050913;28;20033;-63
2021/10/11 01:36:00;;;;;;;20.05;8.80;;;;;;;10.66;100.00;101529.13;5047966;28;20064;-65
2021/10/11 01:38:25;;;;;;;20.90;8.98;;;;;;;10.67;100.00;101527.22;5046882;28;20033;-64
2021/10/11 01:40:51;;;;;;;23.23;9.25;;;;;;;10.69;100.00;101524.97;5049997;28;20051;-64
2021/10/11 01:43:17;;;;;;;20.05;8.75;;;;;;;10.69;100.00;101528.47;5050826;28;20064;-64
2021/10/11 01:45:51;;;;;;;23.10;8.95;;;;;;;10.70;100.00;101529.25;5048073;28;20032;-65
2021/10/11 01:48:17;;;;;;;26.15;8.90;;;;;;;10.74;100.00;101527.47;5050299;28;20040;-64
2021/10/11 01:50:43;;;;;;;19.45;8.50;;;;;;;10.77;100.00;101524.09;5050923;28;20028;-64
2021/10/11 01:53:08;;;;;;;22.38;9.52;;;;;;;10.75;100.00;101515.56;5050073;28;20041;-64
2021/10/11 01:55:34;;;;;;;25.42;8.98;;;;;;;10.77;100.00;101511.41;5045288;28;20029;-64
2021/10/11 01:58:00;;;;;;;22.27;8.45;;;;;;;10.80;100.00;101512.66;5035353;28;20445;-64
2021/10/11 02:00:26;;;;;;;24.92;8.82;;;;;;;10.75;100.00;101519.06;5051834;28;20371;-64
2021/10/11 02:02:51;;;;;;;23.42;8.38;;;;;;;10.86;100.00;101514.00;5048476;28;20035;-63
2021/10/11 02:05:17;;;;;;;24.20;9.07;;;;;;;10.79;100.00;101511.88;5047439;28;20196;-64
2021/10/11 02:07:43;;;;;;;22.25;9.20;;;;;;;10.80;100.00;101513.44;5050197;28;20041;-64
2021/10/11 02:10:09;;;;;;;27.83;9.57;;;;;;;10.81;100.00;101512.34;5049810;28;20040;-64
2021/10/11 02:12:35;;;;;;;21.92;8.90;;;;;;;10.86;100.00;101512.09;5046415;28;20032;-65
2021/10/11 02:15:01;;;;;;;25.88;9.80;;;;;;;10.82;100.00;101516.59;5049524;28;20075;-64
2021/10/11 02:17:27;;;;;;;25.23;9.48;;;;;;;10.82;100.00;101511.19;5051041;28;20410;-64
2021/10/11 02:19:52;;;;;;;24.45;8.40;;;;;;;10.82;100.00;101513.88;5046109;28;20446;-65
2021/10/11 02:22:18;;;;;;;21.63;9.02;;;;;;;10.85;100.00;101507.84;5050382;28;20063;-64
2021/10/11 02:24:43;;;;;;;26.52;9.48;;;;;;;10.86;100.00;101504.00;5046687;28;20028;-64
2021/10/11 02:27:10;;;;;;;24.27;9.23;;;;;;;10.81;100.00;101504.25;5050565;28;20104;-64
2021/10/11 02:29:35;;;;;;;22.13;9.23;;;;;;;10.85;100.00;101501.66;5047651;28;20040;-64
2021/10/11 02:32:01;;;;;;;24.90;8.65;;;;;;;10.85;100.00;101497.06;5046445;28;20033;-64
2021/10/11 02:34:26;;;;;;;24.80;8.93;;;;;;;10.86;100.00;101501.31;5049846;28;20039;-64
2021/10/11 02:36:51;;;;;;;24.50;8.70;;;;;;;10.85;100.00;101505.16;5048434;28;20142;-64
2021/10/11 02:39:17;;;;;;;30.00;9.73;;;;;;;10.88;100.00;101499.06;5046908;28;20044;-64
2021/10/11 02:41:42;;;;;;;22.85;9.68;;;;;;;10.87;100.00;101492.13;5049026;28;20052;-64
2021/10/11 02:44:08;;;;;;;21.60;8.63;;;;;;;10.93;100.00;101489.19;5046584;28;20025;-64
2021/10/11 02:46:33;;;;;;;22.05;9.10;;;;;;;10.91;100.00;101494.94;5050561;28;20116;-64
2021/10/11 02:49:00;;;;;;;24.90;9.52;;;;;;;11.02;100.00;101492.56;5045821;28;20060;-64
2021/10/11 02:51:25;;;;;;;25.60;9.75;;;;;;;10.92;100.00;101490.34;5048907;28;20508;-64
2021/10/11 02:53:51;;;;;;;28.10;9.77;;;;;;;10.93;100.00;101490.00;5050460;28;20041;-64
2021/10/11 02:56:17;;;;;;;26.40;10.15;;;;;;;10.88;100.00;101482.91;5045436;28;20041;-64
2021/10/11 02:58:43;;;;;;;23.65;9.32;;;;;;;10.90;100.00;101477.97;5045318;28;20041;-64
2021/10/11 03:01:09;;;;;;;26.92;10.32;;;;;;;10.94;100.00;101485.41;5042730;28;20037;-64
2021/10/11 03:03:34;;;;;;;27.83;9.98;;;;;;;10.90;100.00;101483.38;5049407;28;20086;-64
2021/10/11 03:06:00;;;;;;;22.25;9.20;;;;;;;10.91;100.00;101484.16;5046986;28;20032;-64
2021/10/11 03:08:25;;;;;;;30.00;10.68;;;;;;;10.92;100.00;101490.34;5048702;28;20037;-64
2021/10/11 03:10:50;;;;;;;26.00;9.65;;;;;;;10.97;100.00;101482.81;5042620;28;20025;-64
2021/10/11 03:13:16;;;;;;;26.83;9.30;;;;;;;10.97;100.00;101482.03;5046664;28;20439;-64
2021/10/11 03:15:41;;;;;;;26.98;10.13;;;;;;;10.94;100.00;101488.88;5049339;28;20749;-64
2021/10/11 03:18:07;;;;;;;27.13;9.65;;;;;;;10.94;100.00;101488.09;5048067;28;20036;-65
2021/10/11 03:20:32;;;;;;;31.05;10.43;;;;;;;10.99;100.00;101482.47;5046021;28;20044;-64
2021/10/11 03:22:58;;;;;;;29.13;10.70;;;;;;;11.01;100.00;101477.53;5052824;28;20100;-64
2021/10/11 03:25:23;;;;;;;27.67;10.07;;;;;;;11.00;100.00;101481.34;5056166;28;20581;-65
2021/10/11 03:27:49;;;;;;;24.75;10.15;;;;;;;10.95;100.00;101476.19;5055883;28;20505;-64
2021/10/11 03:30:14;;;;;;;38.38;11.30;;;;;;;11.02;100.00;101476.41;5053121;28;20072;-65
2021/10/11 03:32:40;;;;;;;29.50;9.93;;;;;;;11.02;100.00;101468.31;5052142;28;20033;-64
2021/10/11 03:35:06;;;;;;;27.17;10.13;;;;;;;11.09;100.00;101472.00;5049373;28;20051;-64
2021/10/11 03:37:31;;;;;;;33.40;10.35;;;;;;;11.05;100.00;101471.16;5039940;28;20025;-64
2021/10/11 03:39:56;;;;;;;25.80;9.57;;;;;;;11.09;100.00;101471.25;5050405;28;20045;-64
2021/10/11 03:42:22;;;;;;;36.10;11.45;;;;;;;11.05;100.00;101478.44;5053987;28;20064;-65
2021/10/11 03:44:47;;;;;;;38.83;11.02;;;;;;;11.09;100.00;101473.94;5055958;28;20037;-65
2021/10/11 03:47:13;;;;;;;32.88;10.85;;;;;;;11.05;100.00;101471.16;5054647;28;20064;-63
2021/10/11 03:49:39;;;;;;;27.45;10.48;;;;;;;11.04;100.00;101474.16;5051231;28;20036;-64
2021/10/11 03:52:04;;;;;;;42.75;11.93;;;;;;;11.07;100.00;101462.72;5058761;28;20032;-64
2021/10/11 03:54:30;;;;;;;35.33;10.85;;;;;;;11.08;100.00;101464.28;5066227;28;20517;-64
2021/10/11 03:56:55;;;;;;;30.30;10.45;;;;;;;11.03;100.00;101467.19;5053082;28;20033;-64
2021/10/11 03:59:21;;;;;;;31.85;10.35;;;;;;;11.07;100.00;101468.09;5054562;28;20033;-64
2021/10/11 04:01:47;;;;;;;26.45;10.02;;;;;;;11.08;100.00;101466.97;5053687;28;20044;-64
2021/10/11 04:04:12;;;;;;;34.55;10.50;;;;;;;11.09;100.00;101463.16;5051481;28;20025;-65
2021/10/11 04:06:38;;;;;;;28.30;9.40;;;;;;;11.08;100.00;101456.19;5029850;28;20168;-65
2021/10/11 04:09:04;;;;;;;27.75;10.18;;;;;;;11.07;100.00;101454.63;5051277;28;20111;-64
2021/10/11 04:11:31;;;;;;;32.30;9.07;;;;;;;11.09;100.00;101463.94;5050373;28;20032;-64
2021/10/11 04:13:57;;;;;;;26.92;9.57;;;;;;;11.06;100.00;101469.22;5046661;28;20043;-64
2021/10/11 04:16:23;;;;;;;33.25;10.52;;;;;;;11.11;100.00;101469.00;5054054;28;20091;-63
2021/10/11 04:18:48;;;;;;;34.20;10.68;;;;;;;11.04;100.00;101466.84;5052306;28;20036;-63
2021/10/11 04:21:14;;;;;;;36.58;10.63;;;;;;;11.05;100.00;101465.75;5055054;28;20029;-64
2021/10/11 04:23:40;;;;;;;33.78;10.32;;;;;;;11.08;100.00;101461.56;5052806;28;20032;-64
2021/10/11 04:26:06;;;;;;;31.55;9.98;;;;;;;11.08;100.00;101467.75;5055373;28;20536;-64
2021/10/11 04:28:31;;;;;;;31.60;10.27;;;;;;;11.05;100.00;101467.66;5054133;28;20033;-64
2021/10/11 04:30:56;;;;;;;35.17;11.95;;;;;;;11.14;100.00;101476.41;5056151;28;20043;-63
2021/10/11 04:33:23;;;;;;;31.35;10.30;;;;;;;11.10;100.00;101468.22;5052834;28;20075;-64
2021/10/11 04:35:49;;;;;;;35.65;10.48;;;;;;;11.09;100.00;101472.00;5049144;28;20057;-64
2021/10/11 04:38:14;;;;;;;29.67;10.02;;;;;;;11.09;100.00;101463.16;5052346;28;20072;-63
2021/10/11 04:40:40;;;;;;;33.70;10.70;;;;;;;11.12;100.00;101474.06;5049973;28;20033;-65
2021/10/11 04:43:05;;;;;;;32.88;11.07;;;;;;;11.14;100.00;101462.94;5052677;28;20035;-66
2021/10/11 04:45:32;;;;;;;35.53;10.02;;;;;;;11.14;100.00;101463.72;5053436;28;20447;-64
2021/10/11 04:48:10;;;;;;;30.30;9.70;;;;;;;11.17;100.00;101476.50;5052330;28;20029;-65
2021/10/11 04:50:35;;;;;;;29.38;10.15;;;;;;;11.12;100.00;101470.56;5050747;28;20397;-63
2021/10/11 04:53:02;;;;;;;30.10;10.57;;;;;;;11.14;100.00;101466.41;5050965;28;20039;-64
2021/10/11 04:55:29;;;;;;;35.60;10.13;;;;;;;11.16;100.00;101463.38;5051819;28;20449;-65
2021/10/11 04:57:56;;;;;;;35.03;10.57;;;;;;;11.21;100.00;101471.22;5051325;28;20033;-64
2021/10/11 05:00:21;;;;;;;32.17;10.85;;;;;;;11.25;100.00;101481.00;5047669;28;20436;-64
2021/10/11 05:02:47;;;;;;;33.03;10.18;;;;;;;11.26;100.00;101479.09;5052700;28;20029;-64
2021/10/11 05:05:12;;;;;;;36.72;10.85;;;;;;;11.26;100.00;101487.97;5052675;28;20032;-65
2021/10/11 05:07:38;;;;;;;25.38;10.02;;;;;;;11.32;100.00;101491.22;5052110;28;20020;-64
2021/10/11 05:10:04;;;;;;;30.00;10.35;;;;;;;11.25;100.00;101489.09;5050663;28;20044;-63
2021/10/11 05:12:30;;;;;;;30.88;10.27;;;;;;;11.30;100.00;101493.47;5052704;28;20056;-65
2021/10/11 05:14:56;;;;;;;30.73;10.70;;;;;;;11.31;100.00;101487.75;5047842;28;20505;-64
2021/10/11 05:17:21;;;;;;;27.88;9.82;;;;;;;11.33;100.00;101482.78;5049926;28;20064;-65
2021/10/11 05:19:47;;;;;;;35.40;10.50;;;;;;;11.32;100.00;101483.94;5049948;28;20118;-64
2021/10/11 05:22:12;;;;;;;27.17;9.70;;;;;;;11.36;100.00;101478.66;5051692;28;20033;-65
2021/10/11 05:24:38;;;;;;;25.27;8.50;;;;;;;11.37;100.00;101482.91;5050657;28;20045;-63
2021/10/11 05:27:03;;;;;;;26.42;9.32;;;;;;;11.44;100.00;101481.19;5049505;28;20041;-65
2021/10/11 05:29:29;;;;;;;26.20;8.88;;;;;;;11.42;100.00;101485.38;5048589;28;20103;-65
2021/10/11 05:31:55;;;;;;;23.35;8.25;;;;;;;11.44;100.00;101483.13;5051727;28;20043;-64
2021/10/11 05:34:22;;;;;;;19.50;7.80;;;;;;;11.44;100.00;101481.19;5050976;28;20028;-64
2021/10/11 05:36:48;;;;;;;21.50;7.57;;;;;;;11.47;100.00;101485.13;5052021;28;20391;-65
2021/10/11 05:39:13;;;;;;;17.25;6.93;;;;;;;11.52;100.00;101491.06;5052519;28;20025;-66
2021/10/11 05:41:39;;;;;;;19.60;7.03;;;;;;;11.58;100.00;101483.53;5051652;28;20087;-63
2021/10/11 05:44:05;;;;;;;25.02;6.97;;;;;;;11.60;100.00;101494.78;5049921;28;20040;-61
2021/10/11 05:46:31;;;;;;;16.52;6.32;;;;;;;11.61;100.00;101491.72;5051761;28;20056;-66
2021/10/11 05:48:56;;;;;;;21.55;6.20;;;;;;;11.60;100.00;101505.56;5053657;28;21012;-63
2021/10/11 05:51:21;;;;;;;16.13;6.18;;;;;;;11.63;100.00;101491.41;5051467;28;20090;-65
2021/10/11 05:53:47;;;;;;;21.25;6.55;;;;;;;11.62;100.00;101495.22;5051738;28;20130;-64
2021/10/11 05:56:12;;;;;;;26.67;7.35;;;;;;;11.59;100.00;101493.22;5056579;28;20068;-65
2021/10/11 05:58:38;;;;;;;16.30;5.90;;;;;;;11.59;100.00;101491.28;5057011;28;20040;-65
2021/10/11 06:01:03;;;;;;;20.42;7.05;;;;;;;11.52;100.00;101491.06;5052595;28;20495;-64
2021/10/11 06:03:29;;;;;;;18.95;6.63;;;;;;;11.53;100.00;101494.56;5038659;28;20041;-65
2021/10/11 06:05:54;;;;;;;18.30;6.22;;;;;;;11.55;100.00;101503.91;5042227;28;20029;-65
2021/10/11 06:08:20;;;;;;;17.23;6.75;;;;;;;11.49;100.00;101496.38;5050022;28;20417;-65
2021/10/11 06:10:45;;;;;;;17.10;6.32;;;;;;;11.46;100.00;101494.34;5043327;28;20098;-63
2021/10/11 06:13:12;;;;;;;17.67;6.93;;;;;;;11.43;100.00;101495.03;5051216;28;20036;-66
2021/10/11 06:15:37;;;;;;;19.70;6.50;;;;;;;11.44;100.00;101491.97;5051553;28;20045;-64
2021/10/11 06:18:06;;;;;;;18.17;6.43;;;;;;;11.43;100.00;101495.81;5046494;28;20036;-65
2021/10/11 06:20:31;;;;;;;21.60;7.07;;;;;;;11.52;100.00;101499.16;5046560;28;20413;-66
2021/10/11 06:22:57;;;;;;;24.05;7.68;;;;;;;11.52;100.00;101498.38;5049600;28;20037;-66
2021/10/11 06:25:23;;;;;;;23.38;7.82;;;;;;;11.58;100.00;101500.50;5050770;28;20039;-66
2021/10/11 06:27:48;;;;;;;21.30;8.38;;;;;;;11.58;100.00;101495.13;5053031;28;20045;-66
2021/10/11 06:30:14;;;;;;;20.55;7.25;;;;;;;11.61;100.00;101507.16;5046588;28;20481;-65
2021/10/11 06:32:40;;;;;;;22.60;7.18;;;;;;;11.63;100.00;101500.25;5046259;28;20059;-66
2021/10/11 06:35:06;;;;;;;24.52;8.57;;;;;;;11.61;100.00;101504.44;5046781;28;20533;-65
2021/10/11 06:37:32;;;;;;;23.17;8.82;;;;;;;11.61;100.00;101507.16;5043908;28;20037;-66
2021/10/11 06:39:57;;;;;;;26.13;8.13;;;;;;;11.68;100.00;101512.78;5048532;28;20056;-65
2021/10/11 06:42:23;;;;;;;25.73;8.55;;;;;;;11.74;100.00;101508.72;5044703;28;20033;-65
2021/10/11 06:44:48;;;;;;;28.10;8.70;;;;;;;11.75;100.00;101508.38;5045332;28;20052;-64
2021/10/11 06:47:14;;;;;;;23.63;8.07;;;;;;;11.79;100.00;101521.97;5050074;28;20103;-65
2021/10/11 06:49:42;;;;;;;23.77;7.85;;;;;;;11.79;100.00;101508.47;5048546;28;20033;-64
2021/10/11 06:52:07;;;;;;;26.02;8.18;;;;;;;11.82;100.00;101518.59;5042827;28;20497;-65
2021/10/11 06:54:33;;;;;;;21.63;7.65;;;;;;;11.87;100.00;101515.66;5043896;28;20072;-65
2021/10/11 06:56:58;;;;;;;26.40;8.52;;;;;;;11.86;100.00;101514.09;5045139;28;20111;-63
2021/10/11 06:59:24;;;;;;;24.77;8.10;;;;;;;11.86;100.00;101514.09;5043527;28;20390;-65
2021/10/11 07:01:49;;;;;;;25.05;7.45;;;;;;;11.93;100.00;101513.50;5043502;28;20037;-63
2021/10/11 07:04:15;;;;;;;23.30;8.20;;;;;;;11.98;100.00;101515.97;5047740;28;20086;-66
2021/10/11 07:06:41;;;;;;;20.95;7.13;;;;;;;12.08;100.00;101520.88;5041593;28;20094;-65
2021/10/11 07:09:07;;;;;;;27.45;7.78;;;;;;;12.12;100.00;101527.16;5043627;28;20102;-65
2021/10/11 07:11:33;;;;;;;22.40;8.07;;;;;;;12.14;100.00;101533.00;5037039;28;20487;-66
2021/10/11 07:13:58;;;;;;;22.45;7.28;;;;;;;12.22;100.00;101532.06;5041670;28;20064;-65
2021/10/11 07:16:24;;;;;;;24.27;7.35;;;;;;;12.24;100.00;101538.69;5038402;28;20488;-64
2021/10/11 07:18:49;;;;;;;19.25;6.82;;;;;;;12.27;100.00;101535.31;5044596;28;20047;-66
2021/10/11 07:21:17;;;;;;;20.20;7.35;;;;;;;12.35;100.00;101544.41;5043369;28;20037;-65
2021/10/11 07:23:43;;;;;;;21.15;7.70;;;;;;;12.43;100.00;101528.03;5046706;28;20129;-65
2021/10/11 07:26:08;;;;;;;23.63;6.93;;;;;;;12.45;100.00;101541.19;5049610;28;20493;-64
2021/10/11 07:28:35;;;;;;;24.70;8.00;;;;;;;12.44;100.00;101539.63;5043069;28;20037;-65
2021/10/11 07:31:00;;;;;;;20.75;7.43;;;;;;;12.45;100.00;101541.97;5044299;28;20033;-66
2021/10/11 07:33:26;;;;;;;26.20;8.88;;;;;;;12.48;100.00;101541.31;5047027;28;20029;-64
2021/10/11 07:35:52;;;;;;;26.13;8.88;;;;;;;12.54;100.00;101547.25;5045961;28;20033;-64
2021/10/11 07:38:18;;;;;;;24.05;9.00;;;;;;;12.58;100.00;101542.72;5043533;28;20056;-64
2021/10/11 07:40:43;;;;;;;26.67;9.35;;;;;;;12.64;100.00;101547.50;5048065;28;20569;-64
2021/10/11 07:43:11;;;;;;;29.20;8.48;;;;;;;12.70;100.00;101539.94;5046389;28;20037;-64
2021/10/11 07:45:37;;;;;;;20.15;7.82;;;;;;;12.75;100.00;101547.81;5044652;28;20116;-63
2021/10/11 07:48:03;;;;;;;27.25;7.78;;;;;;;12.92;100.00;101554.78;5041907;28;20140;-64
2021/10/11 07:50:29;;;;;;;25.33;8.63;;;;;;;13.04;100.00;101546.63;5042768;28;20029;-64
2021/10/11 07:52:55;;;;;;;23.00;8.48;;;;;;;13.19;100.00;101545.84;5035697;28;20034;-66
2021/10/11 07:55:21;;;;;;;23.35;7.95;;;;;;;13.24;100.00;101542.88;5036472;28;21120;-64
2021/10/11 07:57:48;;;;;;;29.63;8.85;;;;;;;13.35;100.00;101547.41;5045723;28;20037;-62
2021/10/11 08:00:19;;;;;;;23.10;8.13;;;;;;;13.41;100.00;101534.38;5033819;28;20080;-64
2021/10/11 08:02:45;;;;;;;23.10;8.60;;;;;;;13.52;100.00;101538.91;5040755;28;20105;-64
2021/10/11 08:05:14;;;;;;;22.40;8.02;;;;;;;13.57;100.00;101540.53;5043899;28;20025;-65
2021/10/11 08:07:43;;;;;;;22.75;7.68;;;;;;;13.76;100.00;101537.91;5040883;28;20033;-64
2021/10/11 08:10:11;;;;;;;22.90;7.25;;;;;;;13.86;100.00;101547.38;5046203;28;20056;-64
2021/10/11 08:12:37;;;;;;;21.50;7.55;;;;;;;13.94;100.00;101547.16;5036183;28;20052;-64
2021/10/11 08:15:04;;;;;;;21.95;7.60;;;;;;;14.16;100.00;101546.47;5043430;28;20056;-64
2021/10/11 08:17:30;;;;;;;19.58;7.63;;;;;;;14.22;100.00;101536.13;5050392;28;20033;-64
2021/10/11 08:19:56;;;;;;;21.02;7.63;;;;;;;14.29;100.00;101536.28;5047257;28;20075;-65
2021/10/11 08:22:21;;;;;;;20.75;7.55;;;;;;;14.37;100.00;101548.84;5041447;28;20082;-64
2021/10/11 08:24:48;;;;;;;20.45;6.90;;;;;;;14.44;100.00;101552.47;5040330;28;20024;-65
2021/10/11 08:27:17;;;;;;;15.95;7.20;;;;;;;14.54;100.00;101550.34;5046962;28;20032;-65
2021/10/11 08:29:44;;;;;;;14.68;6.90;;;;;;;14.50;100.00;101542.13;5038395;28;20672;-64
2021/10/11 08:32:10;;;;;;;17.00;6.90;;;;;;;14.60;100.00;101546.16;5045299;28;20493;-64
2021/10/11 08:34:35;;;;;;;13.80;5.88;;;;;;;14.65;100.00;101552.09;5037322;28;20033;-62
2021/10/11 08:37:01;;;;;;;20.73;7.00;;;;;;;14.73;100.00;101555.72;5047662;28;20549;-63
2021/10/11 08:39:26;;;;;;;18.55;6.85;;;;;;;14.79;100.00;101543.44;5046623;28;20036;-65
2021/10/11 08:41:52;;;;;;;22.33;6.45;;;;;;;14.90;100.00;101544.41;5044470;28;20037;-66
2021/10/11 08:44:18;;;;;;;12.68;5.53;;;;;;;15.03;100.00;101546.56;5051128;28;20413;-65
2021/10/11 08:46:44;;;;;;;14.55;5.85;;;;;;;15.09;100.00;101549.75;5049643;28;20032;-65
2021/10/11 08:49:11;;;;;;;21.27;7.43;;;;;;;15.24;100.00;101548.81;5047906;28;20028;-66
2021/10/11 08:51:37;;;;;;;15.73;6.10;;;;;;;15.31;100.00;101544.28;5054505;28;20060;-66
2021/10/11 08:54:02;;;;;;;16.00;5.78;;;;;;;15.46;100.00;101550.75;5055074;28;20561;-65
2021/10/11 08:56:27;;;;;;;17.30;6.10;;;;;;;15.58;100.00;101553.25;5048612;28;20033;-64
2021/10/11 08:58:53;;;;;;;12.65;4.65;;;;;;;15.77;100.00;101546.94;5048515;28;20366;-65
2021/10/11 09:01:23;;;;;;;9.18;4.18;;;;;;;15.90;100.00;101554.50;5048537;28;20117;-66
2021/10/11 09:03:48;;;;;;;9.32;3.55;;;;;;;15.99;100.00;101546.84;5048359;28;20065;-65
2021/10/11 09:06:14;;;;;;;8.45;3.40;;;;;;;16.23;100.00;101542.88;5042867;28;20033;-64
2021/10/11 09:08:41;;;;;;;8.50;2.92;;;;;;;16.45;98.06;101555.56;5044941;28;20529;-65
2021/10/11 09:11:09;;;;;;;5.10;1.92;;;;;;;16.62;94.57;101552.25;5045208;28;20074;-66
2021/10/11 09:13:48;;;;;;;6.50;1.48;;;;;;;16.78;93.32;101547.34;5043660;28;20033;-64
2021/10/11 09:16:28;;;;;;;2.88;1.40;;;;;;;16.73;92.61;101552.34;5046696;28;20105;-66
2021/10/11 09:18:57;;;;;;;7.00;1.75;;;;;;;16.62;90.77;101548.75;5041255;28;20028;-64
2021/10/11 09:21:32;;;;;;;3.80;1.83;;;;;;;16.56;89.28;101550.25;5040089;28;20030;-64
2021/10/11 09:24:18;;;;;;;3.58;1.38;;;;;;;16.50;89.88;101549.00;5044372;28;20037;-63
2021/10/11 09:26:45;;;;;;;2.45;1.50;;;;;;;16.53;90.70;101556.44;5045893;28;20037;-64
2021/10/11 09:29:11;;;;;;;4.13;1.90;;;;;;;16.62;90.37;101551.47;5043343;28;20045;-65
2021/10/11 09:31:49;;;;;;;2.30;1.27;;;;;;;16.67;90.31;101551.13;5050176;28;20028;-65
2021/10/11 09:34:15;;;;;;;3.72;1.80;;;;;;;16.72;89.55;101557.03;5053238;28;20056;-66
2021/10/11 09:36:41;;;;;;;4.85;1.83;;;;;;;16.71;89.27;101543.78;5039138;28;20126;-65
2021/10/11 09:39:06;;;;;;;4.10;1.63;;;;;;;16.73;88.98;101552.34;5047001;28;20110;-66
2021/10/11 09:41:32;;;;;;;5.43;1.80;;;;;;;16.78;88.22;101544.63;5045512;28;20056;-66
2021/10/11 09:43:58;;;;;;;9.32;1.98;;;;;;;16.86;88.67;101545.50;5047116;28;20037;-65
2021/10/11 09:46:26;;;;;;;5.72;1.60;;;;;;;16.94;89.17;101530.78;5046043;28;20390;-64
2021/10/11 09:48:57;;;;;;;4.50;1.60;;;;;;;17.05;89.23;101537.13;5050135;28;20040;-63
2021/10/11 09:51:24;;;;;;;4.32;1.30;;;;;;;17.07;88.02;101530.13;5044147;28;20028;-65
2021/10/11 09:53:53;;;;;;;1.92;1.17;;;;;;;17.06;85.89;101538.66;5038780;28;20032;-64
2021/10/11 09:56:19;;;;;;;1.60;0.80;;;;;;;17.09;85.05;101532.47;5045113;28;20043;-64
2021/10/11 09:58:45;;;;;;;1.08;0.50;;;;;;;17.18;84.64;101524.78;5042139;28;20037;-64
2021/10/11 10:01:10;;;;;;;1.88;0.70;;;;;;;17.24;83.73;101523.25;5042318;28;20029;-63
2021/10/11 10:03:37;;;;;;;1.30;0.77;;;;;;;17.25;83.01;101526.78;5050733;28;20038;-65
2021/10/11 10:06:05;;;;;;;4.75;1.10;;;;;;;17.34;82.37;101517.13;5050742;28;20155;-64
2021/10/11 10:08:32;;;;;;;2.55;0.60;;;;;;;17.49;82.15;101520.72;5047036;28;20040;-64
2021/10/11 10:11:00;;;;;;;1.40;0.80;;;;;;;17.55;79.43;101520.00;5049078;28;20029;-66
2021/10/11 10:13:26;;;;;;;3.15;0.70;;;;;;;17.57;80.17;101523.13;5046834;28;20031;-65
2021/10/11 10:15:55;;;;;;;1.75;0.50;;;;;;;17.64;80.32;101523.16;5040466;28;20792;-62
2021/10/11 10:18:21;;;;;;;1.85;1.10;;;;;;;17.73;80.41;101517.38;5046755;28;20032;-66
2021/10/11 10:20:52;;;;;;;1.13;0.52;;;;;;;17.84;78.66;101516.25;5043710;28;20037;-63
2021/10/11 10:23:32;;;;;;;2.53;0.55;;;;;;;17.84;78.26;101513.53;5049358;28;20548;-64
2021/10/11 10:26:01;;;;;;;2.00;0.50;;;;;;;17.98;77.75;101519.03;5046114;28;20039;-66
2021/10/11 10:28:44;;;;;;;1.73;0.60;;;;;;;18.01;77.23;101512.81;5046817;28;20032;-63
2021/10/11 10:31:11;;;;;;;4.10;0.73;;;;;;;17.90;77.37;101514.72;5044543;28;20127;-65
2021/10/11 10:33:39;;;;;;;1.63;0.80;;;;;;;17.79;76.65;101500.25;5044902;28;20033;-66
2021/10/11 10:36:21;;;;;;;0.80;0.60;;;;;;;17.66;73.51;101511.88;5039413;28;20036;-64
2021/10/11 10:39:16;;;;;;;2.80;0.52;;;;;;;17.56;73.95;101507.13;5043448;28;20040;-66
2021/10/11 10:41:43;;;;;;;1.50;0.52;;;;;;;17.67;73.96;101505.28;5031788;28;20548;-64
2021/10/11 10:44:15;;;;;;;1.92;0.88;;;;;;;17.70;74.81;101501.78;5057098;28;20035;-66
2021/10/11 10:46:53;;;;;;;4.03;0.40;;;;;;;17.73;76.12;101496.34;5045454;28;20102;-65
2021/10/11 10:49:32;;;;;;;1.75;0.32;;;;;;;17.63;75.88;101485.41;5040506;28;20122;-64
2021/10/11 10:52:00;;;;;;;1.27;0.45;;;;;;;17.52;74.76;101490.78;5041330;28;21057;-64
2021/10/11 10:54:55;;;;;;;0.93;0.30;;;;;;;17.56;74.78;101486.13;5037420;28;20146;-64
2021/10/11 10:57:23;;;;;;;1.42;0.30;;;;;;;17.67;74.64;101497.09;5035213;28;20124;-65
2021/10/11 10:59:53;;;;;;;4.00;0.32;;;;;;;17.56;73.10;101483.41;5040159;28;20033;-64
2021/10/11 11:02:19;;;;;;;0.90;0.30;;;;;;;17.46;73.42;101475.91;5044709;28;20037;-64
2021/10/11 11:05:00;;;;;;;0.68;0.47;;;;;;;17.37;74.33;101478.22;5043079;28;20099;-64
2021/10/11 11:07:33;;;;;;;1.92;0.45;;;;;;;17.38;74.54;101487.19;5052322;28;20025;-64
2021/10/11 11:10:24;;;;;;;4.50;0.63;;;;;;;17.24;75.13;101482.41;5042229;28;20032;-64